createdAt,value
2019-01-02T09:54:02.058Z,91.30
2019-01-02T09:56:42.403Z,89.40
2019-01-02T10:00:10.468Z,84.40
2019-01-02T10:03:17.755Z,83.30
2019-01-02T10:06:31.355Z,80.10
2019-01-02T10:09:44.733Z,76.80
2019-01-02T10:12:51.845Z,72.00
2019-01-02T10:16:09.555Z,71.00
2019-01-02T10:19:00.753Z,71.90
2019-01-02T10:21:59.495Z,69.90
2019-01-02T10:25:26.470Z,68.30
2019-01-02T10:28:36.029Z,68.70
2019-01-02T10:31:47.754Z,65.20
2019-01-02T10:34:56.135Z,64.80
2019-01-02T10:37:27.841Z,65.80
2019-01-02T10:40:28.295Z,66.70
2019-01-02T10:43:29.917Z,62.40
2019-01-02T10:46:35.335Z,61.20
2019-01-02T10:49:47.970Z,63.20
2019-01-02T10:55:31.573Z,61.10
2019-01-02T10:58:21.618Z,63.30
2019-01-02T11:01:34.834Z,65.70
2019-01-02T11:04:35.889Z,65.50
2019-01-02T11:07:53.623Z,65.30
2019-01-02T11:11:06.262Z,60.00
2019-01-02T11:14:13.055Z,63.20
2019-01-02T11:16:56.542Z,62.30
2019-01-02T11:20:28.874Z,62.60
2019-01-02T11:23:14.553Z,59.70
2019-01-02T11:25:46.209Z,61.80
2019-01-02T11:28:35.805Z,62.00
2019-01-02T11:31:59.928Z,59.50
2019-01-02T11:35:06.023Z,60.50
2019-01-02T11:38:06.450Z,57.40
2019-01-02T11:41:38.173Z,57.40
2019-01-02T11:44:24.304Z,58.10
2019-01-02T11:46:53.008Z,56.80
2019-01-02T11:49:21.655Z,59.10
2019-01-02T11:51:50.278Z,58.60
2019-01-02T11:54:18.900Z,59.50
2019-01-02T11:56:49.092Z,59.40
2019-01-02T11:59:17.981Z,59.80
2019-01-02T12:01:46.638Z,60.30
2019-01-02T12:04:15.329Z,63.10
2019-01-02T12:06:43.906Z,64.80
2019-01-02T12:09:12.694Z,65.80
2019-01-02T12:11:41.345Z,68.00
2019-01-02T12:14:10.066Z,69.80
2019-01-02T12:16:38.686Z,68.80
2019-01-02T12:19:07.254Z,69.60
2019-01-02T12:21:36.009Z,69.70
2019-01-02T12:24:04.912Z,66.90
2019-01-02T12:26:33.481Z,66.80
2019-01-02T12:29:02.201Z,65.00
2019-01-02T12:31:30.820Z,64.10
2019-01-02T12:33:59.443Z,62.70
2019-01-02T12:36:28.143Z,63.90
2019-01-02T12:38:56.729Z,65.70
2019-01-02T12:41:25.301Z,65.20
2019-01-02T12:43:53.912Z,66.40
2019-01-02T12:46:22.533Z,63.70
2019-01-02T12:48:51.105Z,64.50
2019-01-02T12:51:19.795Z,64.80
2019-01-02T12:53:48.378Z,64.20
2019-01-02T12:56:17.066Z,63.00
2019-01-02T12:58:45.753Z,65.20
2019-01-02T13:01:16.872Z,63.70
2019-01-02T13:03:57.397Z,63.30
2019-01-02T13:07:03.146Z,59.70
2019-01-02T13:09:34.836Z,61.50
2019-01-02T13:12:12.357Z,60.60
2019-01-02T13:15:27.388Z,61.10
2019-01-02T13:18:40.157Z,61.10
2019-01-02T13:21:49.021Z,62.50
2019-01-02T13:25:00.692Z,61.90
2019-01-02T13:27:41.191Z,64.10
2019-01-02T13:30:56.368Z,63.60
2019-01-02T13:34:17.281Z,65.60
2019-01-02T13:37:11.748Z,63.60
2019-01-02T13:39:46.012Z,64.40
2019-01-02T13:42:17.660Z,64.60
2019-01-02T13:44:49.352Z,62.20
2019-01-02T13:47:45.241Z,61.90
2019-01-02T13:50:45.653Z,59.20
2019-01-02T13:53:47.586Z,58.60
2019-01-02T13:56:16.269Z,56.20
2019-01-02T13:58:44.889Z,56.00
2019-01-02T14:01:13.461Z,56.10
2019-01-02T14:03:42.141Z,57.30
2019-01-02T14:06:10.767Z,56.60
2019-01-02T14:08:39.375Z,53.90
2019-01-02T14:11:07.954Z,55.00
2019-01-02T14:13:36.548Z,55.30
2019-01-02T14:16:05.220Z,55.10
2019-01-02T14:18:33.864Z,56.80
2019-01-02T14:21:02.488Z,59.40
2019-01-02T14:23:31.064Z,60.90
2019-01-02T14:26:02.656Z,62.40
2019-01-02T14:28:31.244Z,62.70
2019-01-02T14:30:59.924Z,64.90
2019-01-02T14:33:28.500Z,62.80
2019-01-02T14:35:57.126Z,64.00
2019-01-02T14:38:25.691Z,65.20
2019-01-02T14:40:54.305Z,63.90
2019-01-02T14:43:22.991Z,65.40
2019-01-02T14:45:51.668Z,64.80
2019-01-02T14:48:20.320Z,65.20
2019-01-02T14:50:49.009Z,63.50
2019-01-02T14:53:17.584Z,62.60
2019-01-02T14:55:46.212Z,63.00
2019-01-02T14:58:14.818Z,63.90
2019-01-02T15:00:43.402Z,65.30
2019-01-02T15:03:12.002Z,64.20
2019-01-02T15:05:40.575Z,65.00
2019-01-02T15:08:09.190Z,66.30
2019-01-02T15:10:37.904Z,65.90
2019-01-02T15:13:06.526Z,66.20
2019-01-02T15:15:35.097Z,67.50
2019-01-02T15:18:03.755Z,68.30
2019-01-02T15:20:32.532Z,69.50
2019-01-02T15:23:01.152Z,70.10
2019-01-02T15:25:29.779Z,71.00
2019-01-02T15:27:58.367Z,72.20
2019-01-02T15:30:27.010Z,72.80
2019-01-02T15:32:55.697Z,74.50
2019-01-02T15:35:24.313Z,75.40
2019-01-02T15:37:53.022Z,76.30
2019-01-02T15:40:21.641Z,77.90
2019-01-02T15:42:50.329Z,78.20
2019-01-02T15:45:19.025Z,78.80
2019-01-02T15:47:47.650Z,80.00
2019-01-02T15:50:16.220Z,81.60
2019-01-02T15:52:44.901Z,81.80
2019-01-02T15:55:13.579Z,82.80
2019-01-02T15:57:42.161Z,84.00
2019-01-02T16:00:12.712Z,84.90
2019-01-02T16:02:41.458Z,86.20
2019-01-02T16:05:10.386Z,87.10
2019-01-02T16:07:38.945Z,87.60
2019-01-02T16:10:08.893Z,88.10
2019-01-02T16:12:37.797Z,88.30
2019-01-02T16:15:07.116Z,89.60
2019-01-02T16:17:36.012Z,90.70
2019-01-02T16:20:07.020Z,90.90
2019-01-02T16:22:35.669Z,91.20
2019-01-02T16:25:04.887Z,91.10
2019-01-02T16:27:33.591Z,91.20
2019-01-02T16:30:02.306Z,91.30
2019-01-02T16:32:31.337Z,91.20
2019-01-02T16:35:00.022Z,91.50
2019-01-02T16:37:28.940Z,91.70
2019-01-02T16:39:57.673Z,91.70
2019-01-02T16:42:28.404Z,91.90
2019-01-02T16:44:57.136Z,92.00
2019-01-02T16:47:25.781Z,92.20
2019-01-02T16:49:55.473Z,92.60
2019-01-02T16:52:24.135Z,93.00
2019-01-02T16:54:52.901Z,93.10
2019-01-02T16:57:21.805Z,93.30
2019-01-02T16:59:50.494Z,93.40
2019-01-02T17:02:19.753Z,93.50
2019-01-02T17:04:49.942Z,93.80
2019-01-02T17:07:18.910Z,94.00
2019-01-02T17:09:48.468Z,94.00
2019-01-02T17:12:19.052Z,94.10
2019-01-02T17:14:47.829Z,94.30
2019-01-02T17:17:16.515Z,94.30
2019-01-02T17:19:45.211Z,94.50
2019-01-02T17:22:15.649Z,94.50
2019-01-02T17:24:44.319Z,94.50
2019-01-02T17:27:13.511Z,94.70
2019-01-02T17:29:42.533Z,94.80
2019-01-02T17:32:11.358Z,94.80
2019-01-02T17:34:41.072Z,94.90
2019-01-02T17:37:09.673Z,95.20
2019-01-02T17:39:39.882Z,95.30
2019-01-02T17:42:08.595Z,95.50
2019-01-02T17:44:37.468Z,95.70
2019-01-02T17:47:07.497Z,96.40
2019-01-02T17:49:36.059Z,96.40
2019-01-02T17:52:08.367Z,96.50
2019-01-02T17:54:36.863Z,96.60
2019-01-02T17:57:05.609Z,96.60
2019-01-02T17:59:34.214Z,96.60
2019-01-02T18:02:02.841Z,96.70
2019-01-02T18:04:31.423Z,96.80
2019-01-02T18:07:00.054Z,97.40
2019-01-02T18:09:28.713Z,97.30
2019-01-02T18:11:57.487Z,97.30
2019-01-02T18:14:26.408Z,97.30
2019-01-02T18:16:55.021Z,97.40
2019-01-02T18:19:23.643Z,97.40
2019-01-02T18:21:52.340Z,97.50
2019-01-02T18:24:21.030Z,97.60
2019-01-02T18:26:49.824Z,97.80
2019-01-02T18:29:18.433Z,98.00
2019-01-02T18:31:47.194Z,98.10
2019-01-02T18:34:15.821Z,98.00
2019-01-02T18:36:44.583Z,98.10
2019-01-02T18:39:13.194Z,98.20
2019-01-02T18:41:42.242Z,98.30
2019-01-02T18:44:10.869Z,98.30
2019-01-02T18:46:39.445Z,98.30
2019-01-02T18:49:08.141Z,98.30
2019-01-02T18:51:36.845Z,98.40
2019-01-02T18:54:05.520Z,98.50
2019-01-02T18:56:34.180Z,98.60
2019-01-02T18:59:02.775Z,99.10
2019-01-02T19:01:31.395Z,99.20
2019-01-02T19:04:00.028Z,99.40
2019-01-02T19:06:28.606Z,99.50
2019-01-02T19:08:57.231Z,99.40
2019-01-02T19:11:25.863Z,99.50
2019-01-02T19:13:54.488Z,99.40
2019-01-02T19:16:23.075Z,99.30
2019-01-02T19:18:51.693Z,99.20
2019-01-02T19:21:20.322Z,99.20
2019-01-02T19:23:48.907Z,99.20
2019-01-02T19:26:17.526Z,99.20
2019-01-02T19:28:46.178Z,99.20
2019-01-02T19:31:14.873Z,99.30
2019-01-02T19:33:43.788Z,99.30
2019-01-02T19:36:12.341Z,99.30
2019-01-02T19:38:41.073Z,99.30
2019-01-02T19:41:09.721Z,99.30
2019-01-02T19:43:38.345Z,99.40
2019-01-02T19:46:06.997Z,99.30
2019-01-02T19:48:35.689Z,99.40
2019-01-02T19:51:04.453Z,99.50
2019-01-02T19:53:33.077Z,99.50
2019-01-02T19:56:01.702Z,99.40
2019-01-02T19:58:30.333Z,99.30
2019-01-02T20:00:58.959Z,99.30
2019-01-02T20:03:27.659Z,99.30
2019-01-02T20:05:56.313Z,99.30
2019-01-02T20:08:25.079Z,99.30
2019-01-02T20:10:53.796Z,99.20
2019-01-02T20:13:22.514Z,99.10
2019-01-02T20:15:51.133Z,99.40
2019-01-02T20:18:19.713Z,99.00
2019-01-02T20:20:48.582Z,99.00
2019-01-02T20:23:17.618Z,99.10
2019-01-02T20:25:46.269Z,99.20
2019-01-02T20:28:14.930Z,99.10
2019-01-02T20:30:45.236Z,99.10
2019-01-02T20:33:13.992Z,99.30
2019-01-02T20:35:42.772Z,99.20
2019-01-02T20:38:11.429Z,99.60
2019-01-02T20:40:40.121Z,99.30
2019-01-02T20:43:09.060Z,99.30
2019-01-02T20:45:38.646Z,99.40
2019-01-02T20:48:07.407Z,99.60
2019-01-02T20:50:36.464Z,99.60
2019-01-02T20:53:05.148Z,99.50
2019-01-02T20:55:33.779Z,99.60
2019-01-02T20:58:02.398Z,99.60
2019-01-02T21:00:31.051Z,99.50
2019-01-02T21:02:59.690Z,99.60
2019-01-02T21:05:28.345Z,99.80
2019-01-02T21:07:56.940Z,99.80
2019-01-02T21:10:27.275Z,99.70
2019-01-02T21:12:56.337Z,99.60
2019-01-02T21:15:25.277Z,99.70
2019-01-02T21:17:53.855Z,99.70
2019-01-02T21:20:22.696Z,99.80
2019-01-02T21:22:51.273Z,99.90
2019-01-02T21:25:19.895Z,99.90
2019-01-02T21:27:48.483Z,99.90
2019-01-02T21:30:17.250Z,99.90
2019-01-02T21:32:45.883Z,99.70
2019-01-02T21:35:14.508Z,99.90
2019-01-02T21:37:43.111Z,99.90
2019-01-02T21:40:11.834Z,99.90
2019-01-02T21:42:40.486Z,99.90
2019-01-02T21:45:09.186Z,99.90
2019-01-02T21:47:37.769Z,99.90
2019-01-02T21:50:07.833Z,99.90
2019-01-02T21:52:36.534Z,99.90
2019-01-02T21:55:06.312Z,99.90
2019-01-02T21:57:34.965Z,99.90
